Terminal Aerodrome Forecast
Issued by NWS Des Moines, IA

Home | Current Version | Previous Version | Text Only | Print | Product List | Glossary On
Versions: 1 2 3 4 5 6 7 8 9 10 11 12 13 14 15 16 17 18 19 20 21 22 23 24 25 26 27 28 29 30 31 32 33 34 35 36 37 38 39 40 41 42 43 44 45 46 47 48 49 50
221
FTUS43 KDMX 090302 AAD
TAFALO
TAF AMD
KALO 090302Z 0903/0924 32018KT 3SM -SN BLSN OVC025
     FM090400 32019G27KT 5SM -SN BLSN OVC014
     FM091500 32021G28KT 6SM -SN BLSN OVC022
     FM091800 33023G32KT 6SM BLSN SCT025 BKN035=

USA.gov is the U.S. government's official web portal to all federal, state and local government web resources and services.